createdAt,value
2022-10-05T00:00:13.126Z,100570.50
2022-10-05T00:03:11.151Z,100573.09
2022-10-05T00:06:53.321Z,100584.31
2022-10-05T00:13:54.924Z,100573.09
2022-10-05T01:14:11.815Z,100558.44
2022-10-05T01:59:52.062Z,100579.22
2022-10-05T02:03:22.438Z,100588.75
2022-10-05T02:07:11.087Z,100586.13
2022-10-05T02:18:18.879Z,100602.56
2022-10-05T06:42:11.001Z,100722.88
2022-10-05T06:47:49.255Z,100745.44
2022-10-05T06:50:45.976Z,100748.00
2022-10-05T06:53:54.673Z,100741.06
2022-10-05T07:03:37.204Z,100748.00
2022-10-05T07:06:18.196Z,100758.38
2022-10-05T07:09:25.372Z,100764.47
2022-10-05T07:12:23.151Z,100767.91
2022-10-05T07:15:03.127Z,100773.84
2022-10-05T07:18:07.984Z,100771.25
2022-10-05T07:20:56.356Z,100766.91
2022-10-05T07:23:41.348Z,100777.34
2022-10-05T07:26:22.791Z,100759.94
2022-10-05T07:29:08.232Z,100753.84
2022-10-05T07:31:43.324Z,100752.06
2022-10-05T07:34:23.821Z,100760.62
2022-10-05T07:37:11.145Z,100768.44
2022-10-05T07:40:00.242Z,100766.59
2022-10-05T07:42:58.375Z,100770.22
2022-10-05T07:45:32.365Z,100766.59
2022-10-05T07:48:04.834Z,100769.22
2022-10-05T07:50:44.112Z,100757.75
2022-10-05T07:53:16.874Z,100755.81
2022-10-05T07:56:03.800Z,100764.59
2022-10-05T07:58:40.596Z,100749.78
2022-10-05T08:01:12.010Z,100759.25
2022-10-05T08:03:47.330Z,100767.03
2022-10-05T08:06:23.017Z,100769.53
2022-10-05T08:08:57.779Z,100772.00
2022-10-05T08:11:59.257Z,100772.06
2022-10-05T08:14:41.448Z,100781.38
2022-10-05T08:17:13.118Z,100776.09
2022-10-05T08:19:50.562Z,100775.19
2022-10-05T08:22:39.842Z,100763.81
2022-10-05T08:25:25.133Z,100759.22
2022-10-05T08:28:24.037Z,100772.13
2022-10-05T08:31:26.670Z,100763.25
2022-10-05T08:36:55.911Z,100751.63
2022-10-05T08:39:28.393Z,100746.13
2022-10-05T08:42:27.679Z,100742.53
2022-10-05T08:45:02.969Z,100745.00
2022-10-05T08:51:01.120Z,100742.69
2022-10-05T08:53:45.059Z,100724.03
2022-10-05T08:56:39.374Z,100727.53
2022-10-05T09:03:42.115Z,100734.41
2022-10-05T09:06:52.083Z,100727.69
2022-10-05T09:10:01.485Z,100740.78
2022-10-05T09:12:52.900Z,100742.94
2022-10-05T09:15:38.494Z,100750.69
2022-10-05T09:18:36.357Z,100750.62
2022-10-05T09:21:33.480Z,100761.78
2022-10-05T09:24:49.549Z,100770.94
2022-10-05T09:27:21.922Z,100767.03
2022-10-05T09:30:44.085Z,100767.62
2022-10-05T09:33:46.644Z,100772.50
2022-10-05T09:40:01.502Z,100767.88
2022-10-05T09:42:47.457Z,100768.47
2022-10-05T09:45:24.184Z,100764.91
2022-10-05T09:48:23.875Z,100768.22
2022-10-05T09:51:01.237Z,100771.31
2022-10-05T09:53:57.482Z,100765.44
2022-10-05T09:56:35.343Z,100757.34
2022-10-05T09:59:21.914Z,100751.00
2022-10-05T10:05:53.684Z,100754.06
2022-10-05T10:08:39.607Z,100758.34
2022-10-05T10:11:26.016Z,100756.19
2022-10-05T10:15:13.059Z,100752.25
2022-10-05T10:21:41.861Z,100749.59
2022-10-05T10:27:37.847Z,100751.94
2022-10-05T10:30:27.609Z,100741.25
2022-10-05T10:33:15.737Z,100747.34
2022-10-05T10:35:46.307Z,100750.78
2022-10-05T10:38:31.084Z,100752.47
2022-10-05T10:41:29.226Z,100739.97
2022-10-05T10:47:34.606Z,100751.09
2022-10-05T10:50:28.380Z,100751.87
2022-10-05T10:53:41.291Z,100749.25
2022-10-05T10:56:38.852Z,100746.44
2022-10-05T10:59:35.410Z,100754.03
2022-10-05T11:02:22.318Z,100747.91
2022-10-05T11:04:57.695Z,100739.06
2022-10-05T11:07:37.287Z,100741.53
2022-10-05T11:10:26.061Z,100745.34
2022-10-05T11:13:25.226Z,100751.66
2022-10-05T11:15:57.879Z,100746.53
2022-10-05T11:18:28.632Z,100742.66
2022-10-05T11:21:15.245Z,100739.88
2022-10-05T11:23:53.647Z,100733.03
2022-10-05T11:26:42.893Z,100733.44
2022-10-05T11:32:51.466Z,100735.59
2022-10-05T11:35:28.299Z,100726.47
2022-10-05T11:38:15.329Z,100728.41
2022-10-05T11:41:17.575Z,100711.63
2022-10-05T11:43:57.146Z,100717.31
2022-10-05T11:46:26.029Z,100715.81
2022-10-05T11:49:03.222Z,100713.53
2022-10-05T11:51:45.458Z,100703.56
2022-10-05T11:54:25.169Z,100704.78
2022-10-05T11:59:49.233Z,100703.00
2022-10-05T12:02:31.330Z,100697.69
2022-10-05T12:05:01.374Z,100698.56
2022-10-05T12:07:35.449Z,100686.22
2022-10-05T12:10:18.124Z,100693.12
2022-10-05T12:12:51.149Z,100681.28
2022-10-05T12:15:25.089Z,100684.22
2022-10-05T12:18:04.733Z,100676.00
2022-10-05T12:20:42.530Z,100680.19
2022-10-05T12:23:23.770Z,100689.59
2022-10-05T12:25:55.140Z,100680.78
2022-10-05T12:28:31.452Z,100678.50
2022-10-05T12:31:04.605Z,100677.13
2022-10-05T12:33:34.332Z,100678.34
2022-10-05T12:36:12.115Z,100683.00
2022-10-05T12:38:47.960Z,100677.78
2022-10-05T12:41:19.639Z,100684.78
2022-10-05T12:43:51.000Z,100676.63
2022-10-05T12:46:28.225Z,100669.25
2022-10-05T12:49:35.286Z,100670.28
2022-10-05T12:52:05.730Z,100657.50
2022-10-05T12:54:43.442Z,100655.81
2022-10-05T12:57:21.850Z,100662.91
2022-10-05T13:03:08.613Z,100641.41
2022-10-05T13:05:41.038Z,100641.41
2022-10-05T13:08:21.560Z,100653.00
2022-10-05T13:13:35.927Z,100656.25
2022-10-05T13:16:07.414Z,100652.75
2022-10-05T13:18:41.899Z,100649.12
2022-10-05T13:21:19.474Z,100657.50
2022-10-05T13:23:57.132Z,100659.00
2022-10-05T13:26:29.474Z,100651.56
2022-10-05T13:29:01.686Z,100654.88
2022-10-05T13:31:48.442Z,100641.72
2022-10-05T13:34:27.417Z,100637.53
2022-10-05T13:36:59.966Z,100640.75
2022-10-05T13:39:36.877Z,100640.91
2022-10-05T13:42:13.811Z,100634.38
2022-10-05T13:44:43.904Z,100637.13
2022-10-05T13:47:16.763Z,100636.53
2022-10-05T13:49:55.789Z,100634.38
2022-10-05T13:52:36.882Z,100630.97
2022-10-05T13:55:08.260Z,100628.69
2022-10-05T13:57:45.258Z,100631.78
2022-10-05T14:00:25.607Z,100632.25
2022-10-05T14:03:03.509Z,100640.03
2022-10-05T14:05:33.192Z,100632.72
2022-10-05T14:08:13.637Z,100636.91
2022-10-05T14:10:46.880Z,100635.12
2022-10-05T14:13:28.184Z,100631.59
2022-10-05T14:15:57.180Z,100635.88
2022-10-05T14:18:28.786Z,100631.13
2022-10-05T14:21:05.478Z,100634.41
2022-10-05T14:23:41.510Z,100632.09
2022-10-05T14:26:18.106Z,100633.63
2022-10-05T14:28:57.647Z,100641.41
2022-10-05T14:31:30.574Z,100636.69
2022-10-05T14:34:27.274Z,100638.69
2022-10-05T14:37:04.837Z,100640.78
2022-10-05T14:39:41.544Z,100629.38
2022-10-05T14:42:14.882Z,100634.47
2022-10-05T14:44:47.751Z,100636.69
2022-10-05T14:47:28.083Z,100628.97
2022-10-05T14:50:14.011Z,100636.31
2022-10-05T14:52:53.556Z,100632.84
2022-10-05T14:55:35.538Z,100628.38
2022-10-05T14:58:21.197Z,100633.56
2022-10-05T15:00:50.613Z,100633.03
2022-10-05T15:03:26.487Z,100626.87
2022-10-05T15:06:02.022Z,100640.53
2022-10-05T15:08:49.472Z,100635.00
2022-10-05T15:11:19.101Z,100634.44
2022-10-05T15:13:49.482Z,100629.91
2022-10-05T15:16:19.934Z,100635.38
2022-10-05T15:18:50.867Z,100627.41
2022-10-05T15:21:31.412Z,100627.22
2022-10-05T15:24:12.080Z,100612.41
2022-10-05T15:26:45.002Z,100605.22
2022-10-05T15:29:19.056Z,100602.63
2022-10-05T15:32:01.687Z,100606.34
2022-10-05T15:34:36.484Z,100609.44
2022-10-05T15:37:12.400Z,100615.66
2022-10-05T15:39:44.836Z,100618.19
2022-10-05T15:42:21.372Z,100606.87
2022-10-05T15:44:54.082Z,100593.91
2022-10-05T15:47:23.895Z,100599.69
2022-10-05T15:49:57.473Z,100594.44
2022-10-05T15:52:35.747Z,100597.50
2022-10-05T15:55:11.194Z,100605.34
2022-10-05T15:57:40.775Z,100605.75
2022-10-05T16:00:10.919Z,100601.72
2022-10-05T16:02:44.255Z,100608.94
2022-10-05T16:05:43.875Z,100595.78
2022-10-05T16:08:33.538Z,100595.09
2022-10-05T16:11:03.872Z,100610.63
2022-10-05T16:13:38.478Z,100607.44
2022-10-05T16:16:23.574Z,100603.84
2022-10-05T16:18:55.068Z,100611.78
2022-10-05T16:33:00.606Z,100623.78
2022-10-05T16:39:37.702Z,100629.53
2022-10-05T16:46:27.691Z,100634.41
2022-10-05T16:53:49.016Z,100635.53
2022-10-05T17:01:01.981Z,100636.63
2022-10-05T17:04:24.085Z,100638.59
2022-10-05T17:11:58.532Z,100647.78
2022-10-05T17:20:00.124Z,100657.87
2022-10-05T17:38:41.171Z,100670.78
2022-10-05T17:42:05.158Z,100672.03
2022-10-05T17:45:26.655Z,100672.78
2022-10-05T17:55:32.501Z,100680.22
2022-10-05T18:06:09.029Z,100683.69
2022-10-05T18:13:33.046Z,100675.38
2022-10-05T18:26:37.798Z,100669.44
2022-10-05T18:29:40.938Z,100678.34
2022-10-05T19:57:04.853Z,100691.91
2022-10-05T20:06:52.832Z,100690.19
2022-10-05T20:19:50.814Z,100712.19
2022-10-05T20:22:32.542Z,100710.19
2022-10-05T20:39:15.898Z,100716.53
2022-10-05T20:48:38.658Z,100715.97
